createdAt,value
2023-03-29T00:01:00.466Z,-0.93
2023-03-29T00:03:30.849Z,-0.95
2023-03-29T00:06:03.649Z,-0.97
2023-03-29T00:08:34.418Z,-0.99
2023-03-29T00:11:02.851Z,-1.02
2023-03-29T00:13:31.260Z,-1.02
2023-03-29T00:15:59.239Z,-1.04
2023-03-29T00:18:27.294Z,-1.04
2023-03-29T00:21:00.015Z,-1.03
2023-03-29T00:23:28.335Z,-1.05
2023-03-29T00:25:58.351Z,-1.06
2023-03-29T00:28:27.073Z,-1.07
2023-03-29T00:31:05.801Z,-1.10
2023-03-29T00:33:33.934Z,-1.16
2023-03-29T00:36:02.242Z,-1.21
2023-03-29T00:38:31.542Z,-1.24
2023-03-29T00:40:59.912Z,-1.28
2023-03-29T00:43:28.321Z,-1.30
2023-03-29T00:45:56.365Z,-1.33
2023-03-29T00:48:29.212Z,-1.36
2023-03-29T00:51:02.288Z,-1.39
2023-03-29T00:53:42.975Z,-1.43
2023-03-29T00:56:35.423Z,-1.46
2023-03-29T00:59:18.896Z,-1.50
2023-03-29T01:01:59.653Z,-1.52
2023-03-29T01:04:56.210Z,-1.52
2023-03-29T01:07:41.114Z,-1.58
2023-03-29T01:10:18.165Z,-1.61
2023-03-29T01:12:54.873Z,-1.67
2023-03-29T01:15:26.725Z,-1.72
2023-03-29T01:17:58.337Z,-1.70
2023-03-29T01:20:51.642Z,-1.66
2023-03-29T01:23:21.454Z,-1.65
2023-03-29T01:26:07.614Z,-1.63
2023-03-29T01:28:57.844Z,-1.65
2023-03-29T01:31:33.003Z,-1.71
2023-03-29T01:34:09.691Z,-1.72
2023-03-29T01:36:42.893Z,-1.75
2023-03-29T01:39:11.017Z,-1.76
2023-03-29T01:41:44.145Z,-1.74
2023-03-29T01:44:43.707Z,-1.72
2023-03-29T01:47:20.280Z,-1.76
2023-03-29T01:50:07.363Z,-1.76
2023-03-29T01:52:46.730Z,-1.74
2023-03-29T01:55:21.973Z,-1.74
2023-03-29T01:57:52.450Z,-1.75
2023-03-29T02:00:24.986Z,-1.74
2023-03-29T02:02:59.340Z,-1.74
2023-03-29T02:05:30.833Z,-1.74
2023-03-29T02:08:01.686Z,-1.74
2023-03-29T02:10:30.728Z,-1.75
2023-03-29T02:12:59.318Z,-1.75
2023-03-29T02:15:28.273Z,-1.75
2023-03-29T02:17:57.214Z,-1.76
2023-03-29T02:20:49.977Z,-1.79
2023-03-29T02:23:34.390Z,-1.84
2023-03-29T02:26:04.097Z,-1.88
2023-03-29T02:28:33.567Z,-1.90
2023-03-29T02:31:24.352Z,-1.91
2023-03-29T02:34:16.184Z,-1.94
2023-03-29T02:36:47.727Z,-1.98
2023-03-29T02:39:18.208Z,-1.99
2023-03-29T02:41:49.908Z,-1.97
2023-03-29T02:44:22.705Z,-1.96
2023-03-29T02:46:53.351Z,-1.94
2023-03-29T02:49:21.789Z,-1.91
2023-03-29T02:51:53.773Z,-1.89
2023-03-29T02:54:26.137Z,-1.89
2023-03-29T02:57:00.412Z,-1.90
2023-03-29T02:59:30.279Z,-1.90
2023-03-29T03:01:58.572Z,-1.90
2023-03-29T03:04:27.379Z,-1.89
2023-03-29T03:06:55.608Z,-1.87
2023-03-29T03:09:24.261Z,-1.85
2023-03-29T03:11:53.698Z,-1.86
2023-03-29T03:14:23.081Z,-1.87
2023-03-29T03:16:53.029Z,-1.91
2023-03-29T03:19:21.777Z,-1.94
2023-03-29T03:21:51.194Z,-1.97
2023-03-29T03:24:19.266Z,-1.99
2023-03-29T03:26:47.644Z,-1.99
2023-03-29T03:29:16.665Z,-2.01
2023-03-29T03:32:04.476Z,-2.06
2023-03-29T03:34:52.710Z,-2.11
2023-03-29T03:37:23.762Z,-2.14
2023-03-29T03:39:52.229Z,-2.17
2023-03-29T03:42:20.624Z,-2.21
2023-03-29T03:44:48.781Z,-2.23
2023-03-29T03:47:37.606Z,-2.26
2023-03-29T03:50:18.716Z,-2.27
2023-03-29T03:52:46.780Z,-2.25
2023-03-29T03:55:16.592Z,-2.24
2023-03-29T03:58:07.394Z,-2.31
2023-03-29T04:00:35.777Z,-2.33
2023-03-29T04:03:12.569Z,-2.31
2023-03-29T04:05:43.571Z,-2.29
2023-03-29T04:08:13.182Z,-2.27
2023-03-29T04:11:16.562Z,-2.31
2023-03-29T04:13:44.698Z,-2.29
2023-03-29T04:16:28.661Z,-2.29
2023-03-29T04:18:58.251Z,-2.27
2023-03-29T04:21:26.390Z,-2.27
2023-03-29T04:23:54.460Z,-2.25
2023-03-29T04:26:23.117Z,-2.23
2023-03-29T04:28:57.671Z,-2.26
2023-03-29T04:31:38.186Z,-2.31
2023-03-29T04:34:16.584Z,-2.33
2023-03-29T04:36:44.811Z,-2.31
2023-03-29T04:39:18.536Z,-2.29
2023-03-29T04:41:47.526Z,-2.26
2023-03-29T04:44:26.908Z,-2.24
2023-03-29T04:46:54.933Z,-2.21
2023-03-29T04:49:43.262Z,-2.20
2023-03-29T04:52:15.127Z,-2.16
2023-03-29T04:54:43.091Z,-2.12
2023-03-29T04:57:21.559Z,-2.08
2023-03-29T05:00:08.698Z,-2.06
2023-03-29T05:03:02.137Z,-2.00
2023-03-29T05:05:32.007Z,-1.49
2023-03-29T05:08:02.139Z,-0.61
2023-03-29T05:10:43.578Z,0.37
2023-03-29T05:13:12.451Z,1.29
2023-03-29T05:15:42.143Z,2.14
2023-03-29T05:18:10.945Z,2.87
2023-03-29T05:20:40.766Z,3.34
2023-03-29T05:23:10.763Z,3.50
2023-03-29T05:26:02.379Z,3.27
2023-03-29T05:28:30.410Z,3.10
2023-03-29T05:31:04.605Z,3.00
2023-03-29T05:33:35.761Z,2.93
2023-03-29T05:36:14.298Z,3.06
2023-03-29T05:38:46.951Z,3.02
2023-03-29T05:41:16.119Z,2.88
2023-03-29T05:44:02.670Z,2.71
2023-03-29T05:46:31.028Z,2.81
2023-03-29T05:49:01.044Z,3.51
2023-03-29T05:51:42.964Z,4.52
2023-03-29T05:54:11.782Z,5.44
2023-03-29T05:56:39.963Z,6.23
2023-03-29T05:59:08.604Z,6.69
2023-03-29T06:01:36.964Z,6.77
2023-03-29T06:04:08.525Z,6.83
2023-03-29T06:06:53.207Z,6.62
2023-03-29T06:09:21.256Z,6.28
2023-03-29T06:11:56.582Z,5.74
2023-03-29T06:14:31.727Z,5.21
2023-03-29T06:17:08.536Z,4.75
2023-03-29T06:19:37.495Z,4.40
2023-03-29T06:22:05.663Z,4.10
2023-03-29T06:24:34.611Z,3.86
2023-03-29T06:27:07.134Z,3.61
2023-03-29T06:29:35.413Z,3.45
2023-03-29T06:32:03.446Z,3.35
2023-03-29T06:35:05.234Z,3.20
2023-03-29T06:37:50.207Z,3.12
2023-03-29T06:40:31.030Z,3.06
2023-03-29T06:42:59.673Z,3.01
2023-03-29T06:45:36.332Z,2.94
2023-03-29T06:48:10.878Z,2.83
2023-03-29T06:50:39.140Z,2.78
2023-03-29T06:53:17.241Z,2.73
2023-03-29T06:55:52.699Z,2.63
2023-03-29T06:58:49.935Z,2.50
2023-03-29T07:01:35.020Z,2.47
2023-03-29T07:04:21.101Z,2.41
2023-03-29T07:07:07.900Z,2.34
2023-03-29T07:09:36.792Z,2.33
2023-03-29T07:12:25.141Z,2.32
2023-03-29T07:14:53.710Z,2.31
2023-03-29T07:17:23.001Z,2.33
2023-03-29T07:19:51.301Z,2.36
2023-03-29T07:22:47.409Z,2.38
2023-03-29T07:25:17.361Z,2.49
2023-03-29T07:27:46.628Z,2.59
2023-03-29T07:30:23.003Z,2.65
2023-03-29T07:32:52.529Z,2.67
2023-03-29T07:35:29.137Z,2.70
2023-03-29T07:37:57.698Z,2.74
2023-03-29T07:40:27.448Z,2.76
2023-03-29T07:43:15.713Z,2.84
2023-03-29T07:45:45.148Z,2.94
2023-03-29T07:48:13.517Z,3.04
2023-03-29T07:50:50.878Z,3.11
2023-03-29T07:53:21.905Z,3.21
2023-03-29T07:55:52.611Z,3.32
2023-03-29T07:58:55.846Z,3.44
2023-03-29T08:01:24.874Z,3.56
2023-03-29T08:04:31.947Z,3.67
2023-03-29T08:07:29.374Z,3.78
2023-03-29T08:10:19.383Z,3.90
2023-03-29T08:12:59.557Z,3.98
2023-03-29T08:15:40.156Z,4.08
2023-03-29T08:18:11.378Z,4.26
2023-03-29T08:20:39.499Z,4.50
2023-03-29T08:23:07.488Z,4.76
2023-03-29T08:25:55.926Z,5.07
2023-03-29T08:28:24.506Z,5.41
2023-03-29T08:30:53.650Z,5.76
2023-03-29T08:33:22.764Z,6.07
2023-03-29T08:35:58.559Z,6.36
2023-03-29T08:38:31.163Z,6.63
2023-03-29T08:40:59.211Z,6.92
2023-03-29T08:43:55.977Z,7.21
2023-03-29T08:47:09.776Z,7.39
2023-03-29T08:49:46.140Z,7.51
2023-03-29T08:52:23.636Z,7.66
2023-03-29T08:54:56.082Z,7.82
2023-03-29T08:57:33.514Z,7.96
2023-03-29T09:00:22.861Z,8.07
2023-03-29T09:02:54.152Z,8.09
2023-03-29T09:05:31.400Z,8.16
2023-03-29T09:08:17.518Z,8.14
2023-03-29T09:11:13.366Z,8.18
2023-03-29T09:13:53.006Z,8.10
2023-03-29T09:16:45.136Z,8.09
2023-03-29T09:19:22.675Z,7.97
2023-03-29T09:22:09.639Z,7.84
2023-03-29T09:24:44.109Z,7.70
2023-03-29T09:27:26.810Z,7.58
2023-03-29T09:30:26.044Z,7.49
2023-03-29T09:33:21.037Z,7.35
2023-03-29T09:36:06.157Z,7.26
2023-03-29T09:38:44.202Z,7.25
2023-03-29T09:41:41.761Z,7.13
2023-03-29T09:44:29.863Z,6.96
2023-03-29T09:47:21.226Z,6.91
2023-03-29T09:49:57.262Z,6.88
2023-03-29T09:52:25.645Z,6.90
2023-03-29T09:55:06.026Z,6.89
2023-03-29T09:57:52.063Z,6.89
2023-03-29T10:00:20.758Z,6.95
2023-03-29T10:02:57.905Z,7.02
2023-03-29T10:05:40.272Z,7.03
2023-03-29T10:08:22.584Z,7.03
2023-03-29T10:10:51.770Z,7.05
2023-03-29T10:13:29.486Z,7.08
2023-03-29T10:16:01.950Z,7.12
2023-03-29T10:18:31.858Z,7.19
2023-03-29T10:21:02.905Z,7.25
2023-03-29T10:23:37.011Z,7.24
2023-03-29T10:26:09.450Z,7.28
2023-03-29T10:28:38.467Z,7.28
2023-03-29T10:31:08.418Z,7.30
2023-03-29T10:33:36.752Z,7.23
2023-03-29T10:36:07.402Z,7.21
2023-03-29T10:38:37.732Z,7.24
2023-03-29T10:41:10.870Z,7.24
2023-03-29T10:43:43.751Z,7.24
2023-03-29T10:46:20.154Z,7.28
2023-03-29T10:48:51.612Z,7.28
2023-03-29T10:51:20.205Z,7.32
2023-03-29T10:53:48.367Z,7.37
2023-03-29T10:56:40.709Z,7.43
2023-03-29T10:59:22.875Z,7.47
2023-03-29T11:02:12.578Z,7.50
2023-03-29T11:05:03.071Z,7.53
2023-03-29T11:07:34.648Z,7.53
2023-03-29T11:10:30.840Z,7.52
2023-03-29T11:13:10.864Z,7.55
2023-03-29T11:16:18.127Z,7.59
2023-03-29T11:18:48.930Z,7.56
2023-03-29T11:21:29.828Z,7.62
2023-03-29T11:24:22.552Z,7.68
2023-03-29T11:26:53.652Z,7.71
2023-03-29T11:29:30.671Z,7.74
2023-03-29T11:32:26.089Z,7.75
2023-03-29T11:35:33.532Z,7.73
2023-03-29T11:38:11.148Z,7.73
2023-03-29T11:40:57.872Z,7.70
2023-03-29T11:43:44.384Z,7.73
2023-03-29T11:46:20.640Z,7.77
2023-03-29T11:49:27.630Z,7.81
2023-03-29T11:52:04.413Z,7.81
2023-03-29T11:54:49.200Z,7.87
2023-03-29T11:57:40.865Z,7.92
2023-03-29T12:00:47.517Z,7.93
2023-03-29T12:03:37.242Z,7.92
2023-03-29T12:06:14.710Z,7.95
2023-03-29T12:08:51.260Z,8.02
2023-03-29T12:11:23.051Z,8.09
2023-03-29T12:13:57.400Z,8.18
2023-03-29T12:16:29.726Z,8.26
2023-03-29T12:19:03.292Z,8.33
2023-03-29T12:21:34.156Z,8.38
2023-03-29T12:24:03.165Z,8.42
2023-03-29T12:27:20.940Z,8.47
2023-03-29T12:30:01.878Z,8.45
2023-03-29T12:33:01.326Z,8.50
2023-03-29T12:37:00.810Z,8.52
2023-03-29T12:39:47.434Z,8.47
2023-03-29T12:42:34.518Z,8.44
2023-03-29T12:45:06.551Z,8.50
2023-03-29T12:47:43.370Z,8.54
2023-03-29T12:50:33.090Z,8.57
2023-03-29T12:53:19.100Z,8.57
2023-03-29T12:55:55.987Z,8.59
2023-03-29T12:58:39.714Z,8.65
2023-03-29T13:01:22.956Z,8.70
2023-03-29T13:03:56.214Z,8.78
2023-03-29T13:06:34.593Z,8.80
2023-03-29T13:09:22.312Z,8.82
2023-03-29T13:11:59.633Z,8.81
2023-03-29T13:14:32.070Z,8.82
2023-03-29T13:17:17.781Z,8.86
2023-03-29T13:20:02.975Z,8.89
2023-03-29T13:22:57.067Z,8.88
2023-03-29T13:25:44.021Z,8.85
2023-03-29T13:28:41.771Z,8.77
2023-03-29T13:31:28.187Z,8.64
2023-03-29T13:34:04.264Z,8.64
2023-03-29T13:36:33.165Z,8.68
2023-03-29T13:39:05.590Z,8.74
2023-03-29T13:41:39.914Z,8.78
2023-03-29T13:44:22.946Z,8.86
2023-03-29T13:47:03.516Z,8.94
2023-03-29T13:49:34.674Z,8.99
2023-03-29T13:52:35.288Z,9.06
2023-03-29T13:55:14.691Z,9.07
2023-03-29T13:57:59.664Z,9.07
2023-03-29T14:00:32.865Z,9.07
2023-03-29T14:03:04.337Z,9.10
2023-03-29T14:05:37.476Z,9.15
2023-03-29T14:08:27.101Z,9.22
2023-03-29T14:10:55.982Z,9.29
2023-03-29T14:13:25.954Z,9.36
2023-03-29T14:16:00.335Z,9.43
2023-03-29T14:18:35.029Z,9.51
2023-03-29T14:21:03.610Z,9.57
2023-03-29T14:23:38.462Z,9.63
2023-03-29T14:26:14.686Z,9.67
2023-03-29T14:28:51.788Z,9.69
2023-03-29T14:31:30.724Z,9.70
2023-03-29T14:34:01.041Z,9.70
2023-03-29T14:36:32.605Z,9.73
2023-03-29T14:39:22.268Z,9.76
2023-03-29T14:41:52.940Z,9.76
2023-03-29T14:44:23.579Z,9.75
2023-03-29T14:46:52.010Z,9.73
2023-03-29T14:49:22.375Z,9.68
2023-03-29T14:51:52.591Z,9.66
2023-03-29T14:54:27.384Z,9.60
2023-03-29T14:56:55.729Z,9.55
2023-03-29T14:59:36.958Z,9.53
2023-03-29T15:02:21.929Z,9.53
2023-03-29T15:05:07.730Z,9.52
2023-03-29T15:07:40.359Z,9.52
2023-03-29T15:10:09.100Z,9.51
2023-03-29T15:12:43.531Z,9.49
2023-03-29T15:15:13.890Z,9.48
2023-03-29T15:17:51.687Z,9.48
2023-03-29T15:20:34.679Z,9.49
2023-03-29T15:23:09.698Z,9.47
2023-03-29T15:25:46.235Z,9.45
2023-03-29T15:28:27.156Z,9.42
2023-03-29T15:31:08.138Z,9.40
2023-03-29T15:33:38.595Z,9.41
2023-03-29T15:36:09.144Z,9.42
2023-03-29T15:38:44.021Z,9.45
2023-03-29T15:41:14.766Z,9.41
2023-03-29T15:43:43.263Z,9.35
2023-03-29T15:46:14.190Z,9.35
2023-03-29T15:48:42.886Z,9.36
2023-03-29T15:51:12.679Z,9.38
2023-03-29T15:53:41.050Z,9.41
2023-03-29T15:56:11.714Z,9.44
2023-03-29T15:58:39.893Z,9.45
2023-03-29T16:01:19.346Z,9.46
2023-03-29T16:03:48.189Z,9.45
2023-03-29T16:06:22.316Z,9.44
2023-03-29T16:08:50.563Z,9.43
2023-03-29T16:11:18.884Z,9.44
2023-03-29T16:13:47.188Z,9.45
2023-03-29T16:16:15.283Z,9.43
2023-03-29T16:18:43.361Z,9.39
2023-03-29T16:21:15.139Z,9.30
2023-03-29T16:23:43.120Z,9.19
2023-03-29T16:26:16.386Z,9.16
2023-03-29T16:28:44.396Z,9.12
2023-03-29T16:31:13.767Z,9.12
2023-03-29T16:33:41.975Z,9.11
2023-03-29T16:36:10.835Z,9.07
2023-03-29T16:38:38.794Z,8.93
2023-03-29T16:41:07.647Z,8.84
2023-03-29T16:43:38.734Z,8.79
2023-03-29T16:46:09.066Z,8.70
2023-03-29T16:48:37.714Z,8.64
2023-03-29T16:51:07.110Z,8.63
2023-03-29T16:53:35.718Z,8.64
2023-03-29T16:56:05.031Z,8.65
2023-03-29T16:58:33.614Z,8.64
2023-03-29T17:01:13.519Z,8.66
2023-03-29T17:03:42.500Z,8.67
2023-03-29T17:06:11.800Z,8.63
2023-03-29T17:08:39.964Z,8.64
2023-03-29T17:11:08.024Z,8.66
2023-03-29T17:13:37.530Z,8.70
2023-03-29T17:16:06.592Z,8.73
2023-03-29T17:18:34.935Z,8.74
2023-03-29T17:21:03.344Z,8.74
2023-03-29T17:23:31.415Z,8.72
2023-03-29T17:25:59.628Z,8.67
2023-03-29T17:28:27.742Z,8.62
2023-03-29T17:30:55.886Z,8.58
2023-03-29T17:33:26.312Z,8.53
2023-03-29T17:35:54.462Z,8.51
2023-03-29T17:38:22.794Z,8.52
2023-03-29T17:40:54.561Z,8.52
2023-03-29T17:43:22.926Z,8.53
2023-03-29T17:45:54.745Z,8.53
2023-03-29T17:48:24.433Z,8.55
2023-03-29T17:50:55.810Z,8.56
2023-03-29T17:53:24.303Z,8.56
2023-03-29T17:55:52.616Z,8.55
2023-03-29T17:58:20.566Z,8.52
2023-03-29T18:00:48.625Z,8.51
2023-03-29T18:03:18.265Z,8.50
2023-03-29T18:05:46.626Z,8.48
2023-03-29T18:08:15.111Z,8.44
2023-03-29T18:10:43.209Z,8.38
2023-03-29T18:13:14.036Z,8.36
2023-03-29T18:15:42.301Z,8.34
2023-03-29T18:18:10.386Z,8.33
2023-03-29T18:20:38.444Z,8.29
2023-03-29T18:23:06.841Z,8.29
2023-03-29T18:25:34.833Z,8.30
2023-03-29T18:28:02.947Z,8.29
2023-03-29T18:30:31.024Z,8.25
2023-03-29T18:32:59.002Z,8.21
2023-03-29T18:35:27.770Z,8.17
2023-03-29T18:37:55.849Z,8.11
2023-03-29T18:40:27.697Z,8.05
2023-03-29T18:42:55.603Z,8.03
2023-03-29T18:45:23.741Z,8.02
2023-03-29T18:47:52.437Z,7.99
2023-03-29T18:50:20.498Z,7.97
2023-03-29T18:52:48.573Z,7.96
2023-03-29T18:55:17.255Z,7.96
2023-03-29T18:57:45.223Z,7.96
2023-03-29T19:00:13.400Z,7.93
2023-03-29T19:02:42.001Z,7.90
2023-03-29T19:05:10.930Z,7.86
2023-03-29T19:07:38.949Z,7.81
2023-03-29T19:10:08.507Z,7.77
2023-03-29T19:12:36.938Z,7.78
2023-03-29T19:15:05.406Z,7.77
2023-03-29T19:17:33.483Z,7.80
2023-03-29T19:20:01.619Z,7.82
2023-03-29T19:22:29.669Z,7.83
2023-03-29T19:24:57.691Z,7.87
2023-03-29T19:27:25.654Z,7.85
2023-03-29T19:29:53.721Z,7.83
2023-03-29T19:32:21.721Z,7.78
2023-03-29T19:34:49.875Z,7.72
2023-03-29T19:37:17.850Z,7.66
2023-03-29T19:39:46.243Z,7.62
2023-03-29T19:42:14.202Z,7.58
2023-03-29T19:44:42.357Z,7.56
2023-03-29T19:47:10.892Z,7.58
2023-03-29T19:49:38.954Z,7.61
2023-03-29T19:52:06.855Z,7.64
2023-03-29T19:54:34.936Z,7.68
2023-03-29T19:57:04.217Z,7.67
2023-03-29T19:59:32.327Z,7.65
2023-03-29T20:02:02.490Z,7.64
2023-03-29T20:04:33.356Z,7.61
2023-03-29T20:07:01.941Z,7.57
2023-03-29T20:09:30.736Z,7.52
2023-03-29T20:11:59.272Z,7.49
2023-03-29T20:14:27.482Z,7.46
2023-03-29T20:16:55.748Z,7.46
2023-03-29T20:19:25.526Z,7.43
2023-03-29T20:21:57.712Z,7.43
2023-03-29T20:24:26.280Z,7.41
2023-03-29T20:26:54.541Z,7.36
2023-03-29T20:29:22.581Z,7.36
2023-03-29T20:31:51.068Z,7.36
2023-03-29T20:34:19.089Z,7.37
2023-03-29T20:36:47.128Z,7.35
2023-03-29T20:39:19.013Z,7.31
2023-03-29T20:41:47.919Z,7.26
2023-03-29T20:44:16.991Z,7.23
2023-03-29T20:46:54.664Z,7.20
2023-03-29T20:49:26.634Z,7.17
2023-03-29T20:51:58.814Z,7.12
2023-03-29T20:54:26.921Z,7.07
2023-03-29T20:56:55.169Z,7.05
2023-03-29T20:59:23.175Z,7.06
2023-03-29T21:01:52.085Z,7.05
2023-03-29T21:04:20.138Z,7.04
2023-03-29T21:06:51.592Z,7.04
2023-03-29T21:09:23.607Z,7.06
2023-03-29T21:11:52.632Z,7.05
2023-03-29T21:14:21.639Z,7.05
2023-03-29T21:16:50.116Z,7.05
2023-03-29T21:19:18.178Z,7.05
2023-03-29T21:21:47.690Z,7.05
2023-03-29T21:24:15.852Z,7.03
2023-03-29T21:26:44.331Z,7.02
2023-03-29T21:29:12.402Z,7.03
2023-03-29T21:31:40.800Z,7.01
2023-03-29T21:34:09.154Z,7.01
2023-03-29T21:36:37.210Z,7.02
2023-03-29T21:39:05.312Z,7.05
2023-03-29T21:41:33.527Z,7.07
2023-03-29T21:44:01.564Z,7.09
2023-03-29T21:46:29.597Z,7.09
2023-03-29T21:48:57.680Z,7.09
2023-03-29T21:51:25.854Z,7.11
2023-03-29T21:53:53.830Z,7.11
2023-03-29T21:56:22.587Z,7.09
2023-03-29T21:58:51.089Z,7.09
2023-03-29T22:01:19.219Z,7.09
2023-03-29T22:03:47.655Z,7.12
2023-03-29T22:06:15.759Z,7.15
2023-03-29T22:08:43.768Z,7.18
2023-03-29T22:11:14.378Z,7.21
2023-03-29T22:13:43.662Z,7.23
2023-03-29T22:16:19.394Z,7.22
2023-03-29T22:18:52.624Z,7.17
2023-03-29T22:21:24.043Z,7.15
2023-03-29T22:23:55.518Z,7.12
2023-03-29T22:26:29.870Z,7.12
2023-03-29T22:28:59.710Z,7.10
2023-03-29T22:31:29.374Z,7.11
2023-03-29T22:33:58.628Z,7.09
2023-03-29T22:36:29.588Z,7.09
2023-03-29T22:38:58.417Z,7.09
2023-03-29T22:41:27.849Z,7.08
2023-03-29T22:43:57.840Z,7.10
2023-03-29T22:46:26.488Z,7.11
2023-03-29T22:48:54.602Z,7.12
2023-03-29T22:51:23.084Z,7.16
2023-03-29T22:53:51.170Z,7.19
2023-03-29T22:56:19.228Z,7.20
2023-03-29T22:58:47.563Z,7.22
2023-03-29T23:01:15.726Z,7.23
2023-03-29T23:03:43.801Z,7.25
2023-03-29T23:06:11.799Z,7.25
2023-03-29T23:08:39.966Z,7.26
2023-03-29T23:11:07.866Z,7.26
2023-03-29T23:13:36.180Z,7.28
2023-03-29T23:16:04.979Z,7.31
2023-03-29T23:18:35.070Z,7.32
2023-03-29T23:21:06.147Z,7.34
2023-03-29T23:23:35.317Z,7.36
2023-03-29T23:26:04.277Z,7.38
2023-03-29T23:28:34.661Z,7.39
2023-03-29T23:31:11.884Z,7.40
2023-03-29T23:33:41.797Z,7.39
2023-03-29T23:36:16.306Z,7.39
2023-03-29T23:38:46.307Z,7.37
2023-03-29T23:41:15.300Z,7.35
2023-03-29T23:43:47.442Z,7.36
2023-03-29T23:46:17.231Z,7.35
2023-03-29T23:48:47.341Z,7.38
2023-03-29T23:51:18.251Z,7.37
2023-03-29T23:53:46.759Z,7.36
2023-03-29T23:56:14.782Z,7.34
2023-03-29T23:58:42.846Z,7.33
